Flight Track Log - Related Links

Times and Time Zones

All times are in EDT time to prevent confusion due to time zone crossing. See the DAL3860 flight status page for this flight to view local times or setup timezone preferences in your user account.

Time Position Orientation Groundspeed Altitude Reporting Facility
EDT Latitude Longitude Course Direction KTS MPH feet Rate Location/Type
Sat 12:03:49 PM 42.8850 -85.4744 61° Northeast 150 173 2,700  Level Chicago Center
Sat 12:04:50 PM 42.9072 -85.3856 71° East 201 231 5,500 2,585 Climbing Chicago Center
Sat 12:05:00 PM 42.8333 -85.3392 90° East  Level FlightAware Approximate
Sat 12:05:52 PM 42.9331 -85.2942 69° East 246 283 8,000  Level Chicago Center
Sat 12:06:00 PM 42.8631 -85.2561 62° Northeast  Level FlightAware Approximate
Sat 12:06:54 PM 42.9603 -85.1981 69° East 270 311 10,900  Level Chicago Center
Sat 12:07:00 PM 42.8949 -85.1735 62° Northeast  Level FlightAware Approximate
Sat 12:07:55 PM 42.9911 -85.0958 68° East 288 331 13,000  Level Chicago Center
Sat 12:08:00 PM 42.9275 -85.0915 60° Northeast  Level FlightAware Approximate
Sat 12:08:57 PM 43.0208 -84.9900 69° East 298 343 13,000  Level Chicago Center
Sat 12:09:00 PM 42.9669 -84.9994 61° Northeast  Level FlightAware Approximate
Sat 12:09:59 PM 43.0197 -84.8828 91° East 281 323 13,000  Level Chicago Center
Sat 12:11:00 PM 43.0161 -84.7783 93° East 277 319 13,000 -488 Level Chicago Center
Sat 12:12:02 PM 43.0119 -84.6500 92° East 282 325 12,000 -484 Descending Chicago Center
Sat 12:13:04 PM 43.0086 -84.5439 92° East 281 323 12,000  Level Chicago Center
Sat 12:14:06 PM 43.0058 -84.4392 92° East 277 319 12,000  Level Chicago Center
Sat 12:15:07 PM 43.0019 -84.3328 93° East 279 321 12,000  Level Chicago Center
Sat 12:16:09 PM 42.9978 -84.2278 93° East 278 320 12,000  Level Chicago Center
Sat 12:16:45 PM 42.9928 -84.1542 95° East 280 322 12,000  Level Cleveland Center
Sat 12:17:12 PM 42.9900 -84.1031 94° East 273 314 12,000  Level Cleveland Center
Sat 12:17:46 PM 42.9792 -84.0511 106° East 280 322 12,000  Level Cleveland Center
Sat 12:18:12 PM 42.9594 -84.0103 123° Southeast 267 307 12,000  Level Cleveland Center
Sat 12:18:47 PM 42.9361 -83.9581 121° Southeast 276 318 12,000  Level Cleveland Center
Sat 12:19:12 PM 42.9183 -83.9231 125° Southeast 262 302 12,000  Level Cleveland Center
Sat 12:19:48 PM 42.8947 -83.8708 122° Southeast 274 315 12,000  Level Cleveland Center
Sat 12:20:12 PM 42.8811 -83.8361 118° Southeast 267 307 12,000  Level Cleveland Center
Sat 12:20:43 PM 42.8597 -83.7867 121° Southeast 273 314 12,000  Level Cleveland Center
Sat 12:21:12 PM 42.8400 -83.7461 124° Southeast 272 313 12,000 -627 Level Cleveland Center
Sat 12:21:50 PM 42.7992 -83.7131 149° Southeast 284 327 11,300 -1,100 Descending Cleveland Center
Sat 12:22:12 PM 42.7725 -83.6975 157° South 272 313 10,900 -984 Descending Cleveland Center
Sat 12:22:51 PM 42.7292 -83.6728 157° South 274 315 10,300 -800 Descending Cleveland Center
Sat 12:23:12 PM 42.7169 -83.6664 159° South 272 313 10,100 -1,082 Descending Cleveland Center
Sat 12:23:52 PM 42.6728 -83.6022 133° Southeast 259 298 9,200 -1,200 Descending Cleveland Center
Sat 12:24:12 PM 42.6567 -83.5817 137° Southeast 264 304 8,900 -984 Descending Cleveland Center
Sat 12:24:53 PM 42.6225 -83.5292 131° Southeast 255 293 8,200 -1,000 Descending Cleveland Center
Sat 12:25:12 PM 42.6064 -83.5114 141° Southeast 259 298 7,900 -987 Descending Cleveland Center
Sat 12:26:12 PM 42.5600 -83.4444 133° Southeast 254 292 6,900 -990 Descending Cleveland Center
Sat 12:26:55 PM 42.5278 -83.4008 135° Southeast 240 276 6,200 -692 Descending Cleveland Center
Sat 12:27:56 PM 42.4683 -83.3558 151° Southeast 233 268 5,700 -787 Descending Cleveland Center
Sat 12:28:57 PM 42.4022 -83.3389 169° South 239 275 4,600 -1,190 Descending Cleveland Center
Sat 12:29:52 PM 42.3442 -83.3278 172° South 227 261 3,400 -1,179 Descending Cleveland Center
Sat 12:30:54 PM 42.2900 -83.3228 176° South 170 196 2,300 -1,033 Descending Cleveland Center
Sat 12:31:54 PM 42.2519 -83.3492 207° Southwest 141 162 1,300 -1,000 Descending Cleveland Center

Login

Don't have an account? Register now (free) for customized features, flight alerts, and more!